createdAt,value
2023-02-11T00:01:41.451Z,2.30
2023-02-11T00:04:23.531Z,2.40
2023-02-11T00:09:55.502Z,2.40
2023-02-11T00:12:26.077Z,2.40
2023-02-11T00:14:58.012Z,2.40
2023-02-11T00:17:30.083Z,2.40
2023-02-11T00:29:27.828Z,2.30
2023-02-11T00:48:29.103Z,2.30
2023-02-11T00:54:08.295Z,2.30
2023-02-11T01:26:06.074Z,2.70
2023-02-11T01:38:57.262Z,2.60
2023-02-11T01:41:31.420Z,2.80
2023-02-11T01:44:04.620Z,2.80
2023-02-11T01:46:39.265Z,2.80
2023-02-11T01:49:14.766Z,2.80
2023-02-11T01:51:51.349Z,2.80
2023-02-11T01:54:43.018Z,2.80
2023-02-11T01:57:28.464Z,2.80
2023-02-11T02:00:09.915Z,2.80
2023-02-11T02:02:49.422Z,2.80
2023-02-11T02:05:23.186Z,2.80
2023-02-11T02:08:13.759Z,2.80
2023-02-11T02:10:45.748Z,2.90
2023-02-11T02:13:22.068Z,2.90
2023-02-11T02:16:10.314Z,2.90
2023-02-11T02:18:51.818Z,2.90
2023-02-11T02:24:36.004Z,3.00
2023-02-11T02:27:24.657Z,3.10
2023-02-11T02:30:33.641Z,3.10
2023-02-11T02:33:22.823Z,3.10
2023-02-11T02:36:08.294Z,3.10
2023-02-11T02:38:46.240Z,3.10
2023-02-11T02:41:18.640Z,3.10
2023-02-11T02:44:02.530Z,3.10
2023-02-11T02:46:34.395Z,3.20
2023-02-11T02:49:06.986Z,3.20
2023-02-11T02:51:47.497Z,3.20
2023-02-11T02:54:34.543Z,3.30
2023-02-11T02:57:19.657Z,3.30
2023-02-11T03:00:06.419Z,3.30
2023-02-11T03:02:53.254Z,3.40
2023-02-11T03:05:30.212Z,3.40
2023-02-11T03:08:07.503Z,3.50
2023-02-11T03:10:47.820Z,3.50
2023-02-11T03:13:22.274Z,3.60
2023-02-11T03:15:59.903Z,3.60
2023-02-11T03:18:40.945Z,3.70
2023-02-11T03:21:29.753Z,3.70
2023-02-11T03:24:27.504Z,3.70
2023-02-11T03:27:05.287Z,3.80
2023-02-11T03:29:46.218Z,3.80
2023-02-11T03:32:21.816Z,3.80
2023-02-11T03:34:56.454Z,3.80
2023-02-11T03:37:32.139Z,3.80
2023-02-11T03:40:23.981Z,3.80
2023-02-11T03:43:03.367Z,3.80
2023-02-11T03:45:49.863Z,3.80
2023-02-11T03:48:27.345Z,3.80
2023-02-11T03:50:58.394Z,3.80
2023-02-11T03:53:35.318Z,3.90
2023-02-11T03:56:23.235Z,3.90
2023-02-11T03:58:58.558Z,3.90
2023-02-11T04:01:38.860Z,3.90
2023-02-11T04:04:13.466Z,3.90
2023-02-11T04:06:53.911Z,3.90
2023-02-11T04:09:25.741Z,4.00
2023-02-11T04:12:04.886Z,4.00
2023-02-11T04:14:37.589Z,4.00
2023-02-11T04:17:14.878Z,4.00
2023-02-11T04:19:51.197Z,4.10
2023-02-11T04:22:40.148Z,4.10
2023-02-11T04:25:24.465Z,4.10
2023-02-11T04:28:36.666Z,4.20
2023-02-11T04:31:15.110Z,4.20
2023-02-11T04:33:45.449Z,4.20
2023-02-11T04:36:31.170Z,4.20
2023-02-11T04:39:03.867Z,4.20
2023-02-11T04:41:35.520Z,4.20
2023-02-11T04:44:18.188Z,4.20
2023-02-11T04:46:53.738Z,4.30
2023-02-11T04:49:49.446Z,4.30
2023-02-11T04:52:40.671Z,4.30
2023-02-11T04:55:15.678Z,4.30
2023-02-11T04:57:48.769Z,4.30
2023-02-11T05:00:35.311Z,4.40
2023-02-11T05:03:24.500Z,4.40
2023-02-11T05:05:56.951Z,4.40
2023-02-11T05:08:35.981Z,4.40
2023-02-11T05:11:07.236Z,4.40
2023-02-11T05:13:38.510Z,4.40
2023-02-11T05:16:12.331Z,4.40
2023-02-11T05:19:10.593Z,4.40
2023-02-11T05:22:03.852Z,4.40
2023-02-11T05:24:38.543Z,4.40
2023-02-11T05:27:15.489Z,4.40
2023-02-11T05:30:05.479Z,4.40
2023-02-11T05:32:40.152Z,4.40
2023-02-11T05:35:26.414Z,4.40
2023-02-11T05:38:09.133Z,4.30
2023-02-11T05:40:42.034Z,4.40
2023-02-11T05:43:15.016Z,4.40
2023-02-11T05:45:52.965Z,4.40
2023-02-11T05:48:26.730Z,4.40
2023-02-11T05:51:02.792Z,4.40
2023-02-11T05:53:50.430Z,4.40
2023-02-11T05:56:25.938Z,4.40
2023-02-11T05:58:59.761Z,4.40
2023-02-11T06:01:39.039Z,4.40
2023-02-11T06:04:15.673Z,4.40
2023-02-11T06:06:50.547Z,4.40
2023-02-11T06:09:38.901Z,4.40
2023-02-11T06:12:14.228Z,4.40
2023-02-11T06:14:44.625Z,4.40
2023-02-11T06:20:13.040Z,4.40
2023-02-11T06:23:00.089Z,4.40
2023-02-11T06:25:39.445Z,4.40
2023-02-11T06:28:09.209Z,4.40
2023-02-11T06:30:43.004Z,4.50
2023-02-11T06:33:17.336Z,4.50
2023-02-11T06:35:49.638Z,4.50
2023-02-11T06:38:26.939Z,4.50
2023-02-11T06:41:03.090Z,4.50
2023-02-11T06:43:36.053Z,4.50
2023-02-11T06:46:11.333Z,4.50
2023-02-11T06:48:54.941Z,4.60
2023-02-11T06:51:25.232Z,4.60
2023-02-11T06:54:07.730Z,4.60
2023-02-11T06:56:55.258Z,4.60
2023-02-11T06:59:43.578Z,4.60
2023-02-11T07:02:20.617Z,4.70
2023-02-11T07:05:07.449Z,4.60
2023-02-11T07:07:37.972Z,4.70
2023-02-11T07:10:09.276Z,4.70
2023-02-11T07:13:06.935Z,4.70
2023-02-11T07:15:39.755Z,4.70
2023-02-11T07:18:14.759Z,4.70
2023-02-11T07:20:44.890Z,4.70
2023-02-11T07:23:19.576Z,4.70
2023-02-11T07:25:54.459Z,4.70
2023-02-11T07:28:26.827Z,4.80
2023-02-11T07:31:08.669Z,4.80
2023-02-11T07:33:38.929Z,4.80
2023-02-11T07:36:11.573Z,4.80
2023-02-11T07:38:55.000Z,4.80
2023-02-11T07:41:30.939Z,4.80
2023-02-11T07:44:07.703Z,4.80
2023-02-11T07:47:00.437Z,4.80
2023-02-11T07:49:48.323Z,4.80
2023-02-11T07:52:23.763Z,4.80
2023-02-11T07:54:53.059Z,4.80
2023-02-11T07:57:26.039Z,4.80
2023-02-11T08:00:07.081Z,4.80
2023-02-11T08:02:53.039Z,4.90
2023-02-11T08:05:28.720Z,4.90
2023-02-11T08:08:00.950Z,4.90
2023-02-11T08:10:31.363Z,4.90
2023-02-11T08:13:17.160Z,4.90
2023-02-11T08:15:46.446Z,4.90
2023-02-11T08:18:15.567Z,5.00
2023-02-11T08:20:54.163Z,5.00
2023-02-11T08:23:29.304Z,5.00
2023-02-11T08:29:03.718Z,5.10
2023-02-11T08:31:39.555Z,5.10
2023-02-11T08:34:21.515Z,5.10
2023-02-11T08:36:56.365Z,5.20
2023-02-11T08:39:32.236Z,5.20
2023-02-11T08:42:06.574Z,5.30
2023-02-11T08:44:42.297Z,5.30
2023-02-11T08:47:13.488Z,5.40
2023-02-11T08:49:45.967Z,5.40
2023-02-11T08:52:38.425Z,5.50
2023-02-11T08:55:14.754Z,5.50
2023-02-11T08:57:49.152Z,5.60
2023-02-11T09:00:30.657Z,5.60
2023-02-11T09:03:05.794Z,5.60
2023-02-11T09:05:40.835Z,5.60
2023-02-11T09:08:17.490Z,5.60
2023-02-11T09:10:57.233Z,5.60
2023-02-11T09:13:37.641Z,5.70
2023-02-11T09:16:20.537Z,5.80
2023-02-11T09:18:53.369Z,5.80
2023-02-11T09:21:34.830Z,5.90
2023-02-11T09:24:09.910Z,5.80
2023-02-11T09:26:50.681Z,5.80
2023-02-11T09:29:29.546Z,5.80
2023-02-11T09:32:22.832Z,5.80
2023-02-11T09:34:58.707Z,5.80
2023-02-11T09:37:37.001Z,5.90
2023-02-11T09:40:29.320Z,5.90
2023-02-11T09:43:21.636Z,5.90
2023-02-11T09:46:01.108Z,5.90
2023-02-11T09:48:43.598Z,5.90
2023-02-11T09:54:33.791Z,6.10
2023-02-11T09:57:19.479Z,6.20
2023-02-11T10:00:12.540Z,6.20
2023-02-11T10:02:58.758Z,6.30
2023-02-11T10:05:36.037Z,6.40
2023-02-11T10:08:16.749Z,6.40
2023-02-11T10:10:54.678Z,6.40
2023-02-11T10:13:48.841Z,6.40
2023-02-11T10:16:46.794Z,6.40
2023-02-11T10:19:36.311Z,6.40
2023-02-11T10:25:24.801Z,6.50
2023-02-11T10:27:57.651Z,6.60
2023-02-11T10:33:33.936Z,6.60
2023-02-11T10:36:25.096Z,6.70
2023-02-11T10:39:02.817Z,6.70
2023-02-11T10:41:42.720Z,6.80
2023-02-11T10:44:24.009Z,6.80
2023-02-11T10:47:09.590Z,6.80
2023-02-11T10:49:44.164Z,6.80
2023-02-11T10:52:35.051Z,6.80
2023-02-11T10:55:11.028Z,6.80
2023-02-11T10:57:58.242Z,6.80
2023-02-11T11:00:45.010Z,6.80
2023-02-11T11:03:35.200Z,6.80
2023-02-11T11:06:24.468Z,6.80
2023-02-11T11:09:07.204Z,6.80
2023-02-11T11:12:07.417Z,6.80
2023-02-11T11:14:39.190Z,6.80
2023-02-11T11:17:20.310Z,6.80
2023-02-11T11:19:52.168Z,6.80
2023-02-11T11:22:47.383Z,6.80
2023-02-11T11:25:32.619Z,6.80
2023-02-11T11:28:10.069Z,6.80
2023-02-11T11:30:58.806Z,6.90
2023-02-11T11:33:39.042Z,6.90
2023-02-11T11:36:41.439Z,6.90
2023-02-11T11:39:35.488Z,6.90
2023-02-11T11:42:12.783Z,6.90
2023-02-11T11:44:44.473Z,7.00
2023-02-11T11:47:36.154Z,7.10
2023-02-11T11:50:38.378Z,7.10
2023-02-11T11:53:12.134Z,7.10
2023-02-11T11:55:45.092Z,7.20
2023-02-11T11:58:17.101Z,7.20
2023-02-11T12:00:53.617Z,7.20
2023-02-11T12:03:46.375Z,7.10
2023-02-11T12:06:23.333Z,7.10
2023-02-11T12:08:57.126Z,7.10
2023-02-11T12:11:31.854Z,7.10
2023-02-11T12:14:06.249Z,7.10
2023-02-11T12:16:45.799Z,7.10
2023-02-11T12:19:35.336Z,7.10
2023-02-11T12:22:09.141Z,7.10
2023-02-11T12:25:00.622Z,7.20
2023-02-11T12:31:12.076Z,7.30
2023-02-11T12:34:06.566Z,7.20
2023-02-11T12:37:11.344Z,7.30
2023-02-11T12:39:50.398Z,7.20
2023-02-11T12:42:49.258Z,7.20
2023-02-11T12:45:35.848Z,7.20
2023-02-11T12:48:27.175Z,7.20
2023-02-11T12:51:17.735Z,7.20
2023-02-11T12:54:22.066Z,7.20
2023-02-11T12:57:00.048Z,7.20
2023-02-11T12:59:44.466Z,7.20
2023-02-11T13:02:24.144Z,7.20
2023-02-11T13:04:57.268Z,7.20
2023-02-11T13:07:42.357Z,7.20
2023-02-11T13:10:30.559Z,7.40
2023-02-11T13:13:43.979Z,7.30
2023-02-11T13:19:28.189Z,7.30
2023-02-11T13:22:19.986Z,7.30
2023-02-11T13:25:02.906Z,7.20
2023-02-11T13:27:41.260Z,7.20
2023-02-11T13:30:35.422Z,7.20
2023-02-11T13:33:19.020Z,7.20
2023-02-11T13:35:56.296Z,7.20
2023-02-11T13:38:40.152Z,7.20
2023-02-11T13:41:31.196Z,7.30
2023-02-11T13:44:11.661Z,7.30
2023-02-11T13:47:02.067Z,7.20
2023-02-11T13:49:34.540Z,7.30
2023-02-11T13:52:14.857Z,7.30
2023-02-11T13:54:52.472Z,7.30
2023-02-11T13:57:34.740Z,7.20
2023-02-11T14:00:13.101Z,7.20
2023-02-11T14:03:01.279Z,7.20
2023-02-11T14:05:49.905Z,7.20
2023-02-11T14:08:52.465Z,7.20
2023-02-11T14:11:46.707Z,7.20
2023-02-11T14:14:34.855Z,7.20
2023-02-11T14:17:33.545Z,7.20
2023-02-11T14:20:17.126Z,7.20
2023-02-11T14:22:58.446Z,7.20
2023-02-11T14:25:34.455Z,7.20
2023-02-11T14:28:10.606Z,7.20
2023-02-11T14:30:58.067Z,7.20
2023-02-11T14:33:49.280Z,7.20
2023-02-11T14:36:32.618Z,7.20
2023-02-11T14:39:23.495Z,7.20
2023-02-11T14:42:33.899Z,7.20
2023-02-11T14:45:06.881Z,7.30
2023-02-11T14:47:55.521Z,7.30
2023-02-11T14:53:58.980Z,7.30
2023-02-11T14:56:48.652Z,7.30
2023-02-11T14:59:28.348Z,7.40
2023-02-11T15:02:04.750Z,7.40
2023-02-11T15:05:07.209Z,7.40
2023-02-11T15:08:04.764Z,7.40
2023-02-11T15:10:39.828Z,7.40
2023-02-11T15:13:19.193Z,7.40
2023-02-11T15:15:53.453Z,7.40
2023-02-11T15:21:50.384Z,7.50
2023-02-11T15:28:11.312Z,7.50
2023-02-11T15:33:39.356Z,7.50
2023-02-11T15:36:21.301Z,7.50
2023-02-11T15:39:14.540Z,7.60
2023-02-11T15:41:45.941Z,7.60
2023-02-11T15:44:43.512Z,7.60
2023-02-11T15:47:16.312Z,7.60
2023-02-11T15:49:47.411Z,7.60
2023-02-11T15:52:36.641Z,7.60
2023-02-11T15:55:11.272Z,7.60
2023-02-11T15:57:44.951Z,7.60
2023-02-11T16:00:47.917Z,7.60
2023-02-11T16:03:29.360Z,7.60
2023-02-11T16:06:10.040Z,7.60
2023-02-11T16:11:47.590Z,7.60
2023-02-11T16:14:51.456Z,7.60
2023-02-11T16:17:34.630Z,7.60
2023-02-11T16:20:08.059Z,7.60
2023-02-11T16:22:42.624Z,7.60
2023-02-11T16:25:24.029Z,7.60
2023-02-11T16:28:00.772Z,7.60
2023-02-11T16:33:40.584Z,7.60
2023-02-11T16:36:20.868Z,7.60
2023-02-11T16:41:41.836Z,7.60
2023-02-11T16:44:12.721Z,7.60
2023-02-11T16:46:57.851Z,7.60
2023-02-11T16:49:40.872Z,7.60
2023-02-11T16:52:20.713Z,7.60
2023-02-11T16:55:22.385Z,7.50
2023-02-11T17:00:54.042Z,7.40
2023-02-11T17:03:43.278Z,7.30
2023-02-11T17:06:40.869Z,7.30
2023-02-11T17:09:27.790Z,7.30
2023-02-11T17:12:18.623Z,7.30
2023-02-11T17:14:58.801Z,7.30
2023-02-11T17:17:33.508Z,7.30
2023-02-11T17:20:19.465Z,7.30
2023-02-11T17:22:55.915Z,7.30
2023-02-11T17:25:27.913Z,7.30
2023-02-11T17:28:02.972Z,7.30
2023-02-11T17:30:38.956Z,7.30
2023-02-11T17:33:09.661Z,7.30
2023-02-11T17:35:46.631Z,7.30
2023-02-11T17:38:21.343Z,7.30
2023-02-11T17:41:03.487Z,7.30
2023-02-11T17:43:49.980Z,7.20
2023-02-11T17:49:30.186Z,7.10
2023-02-11T17:52:05.051Z,7.00
2023-02-11T17:54:56.867Z,7.00
2023-02-11T17:57:34.640Z,7.00
2023-02-11T18:00:11.111Z,6.90
2023-02-11T18:02:43.763Z,6.80
2023-02-11T18:05:30.751Z,6.80
2023-02-11T18:08:01.834Z,6.70
2023-02-11T18:10:34.590Z,6.70
2023-02-11T18:13:35.244Z,6.70
2023-02-11T18:16:06.645Z,6.60
2023-02-11T18:18:40.894Z,6.60
2023-02-11T18:21:24.344Z,6.60
2023-02-11T18:23:59.152Z,6.60
2023-02-11T18:26:34.595Z,6.50
2023-02-11T18:29:12.356Z,6.50
2023-02-11T18:31:48.916Z,6.50
2023-02-11T18:34:29.967Z,6.50
2023-02-11T18:37:13.659Z,6.40
2023-02-11T18:39:49.021Z,6.50
2023-02-11T18:42:21.088Z,6.40
2023-02-11T18:45:13.055Z,6.40
2023-02-11T18:47:54.537Z,6.50
2023-02-11T18:50:29.451Z,6.50
2023-02-11T18:53:00.036Z,6.50
2023-02-11T18:55:34.697Z,6.50
2023-02-11T18:58:20.761Z,6.50
2023-02-11T19:01:07.576Z,6.50
2023-02-11T19:03:50.128Z,6.50
2023-02-11T19:06:28.991Z,6.50
2023-02-11T19:09:04.158Z,6.50
2023-02-11T19:12:04.056Z,6.60
2023-02-11T19:14:44.388Z,6.60
2023-02-11T19:17:15.805Z,6.60
2023-02-11T19:20:15.790Z,6.60
2023-02-11T19:22:50.974Z,6.60
2023-02-11T21:16:30.939Z,6.70
2023-02-11T21:19:26.067Z,6.70
2023-02-11T21:21:57.745Z,6.70
2023-02-11T21:24:53.439Z,6.70
2023-02-11T21:27:46.706Z,6.70
2023-02-11T21:30:22.230Z,6.60
2023-02-11T21:33:06.556Z,6.70
2023-02-11T21:38:41.749Z,6.60
2023-02-11T21:41:16.911Z,6.60
2023-02-11T21:46:59.098Z,6.60
2023-02-11T21:52:33.932Z,6.70
2023-02-11T21:55:16.468Z,6.70
2023-02-11T21:58:00.810Z,6.70
2023-02-11T22:04:08.965Z,6.80
2023-02-11T22:06:59.366Z,6.80
2023-02-11T22:09:31.556Z,6.70
2023-02-11T22:12:04.803Z,6.70
2023-02-11T22:14:40.505Z,6.70
2023-02-11T22:17:19.969Z,6.80
2023-02-11T22:23:15.416Z,6.80
2023-02-11T22:25:53.181Z,6.80
2023-02-11T22:40:32.918Z,6.80
2023-02-11T22:43:24.266Z,6.70
2023-02-11T22:46:29.753Z,6.70
2023-02-11T22:49:14.076Z,6.60
2023-02-11T22:55:13.011Z,6.70
2023-02-11T22:57:57.814Z,6.70
2023-02-11T23:06:41.008Z,6.70
2023-02-11T23:09:27.035Z,6.70
2023-02-11T23:12:31.640Z,6.70
2023-02-11T23:15:29.364Z,6.70
2023-02-11T23:18:03.935Z,6.80
2023-02-11T23:20:37.722Z,6.80
2023-02-11T23:29:39.702Z,6.80
2023-02-11T23:32:41.086Z,6.80
2023-02-11T23:35:36.371Z,6.70
2023-02-11T23:38:18.052Z,6.80
2023-02-11T23:40:55.042Z,6.80
2023-02-11T23:43:32.149Z,6.80
2023-02-11T23:49:24.203Z,6.80
2023-02-11T23:55:32.800Z,6.80
2023-02-11T23:58:23.169Z,6.80
